createdAt,value
2022-10-05T00:00:55.245Z,102074.41
2022-10-05T00:03:39.928Z,102078.85
2022-10-05T00:06:10.895Z,102080.09
2022-10-05T00:08:38.089Z,102080.67
2022-10-05T00:11:11.020Z,102082.40
2022-10-05T00:13:39.688Z,102083.16
2022-10-05T00:16:19.529Z,102080.48
2022-10-05T00:18:52.889Z,102083.69
2022-10-05T00:21:26.300Z,102083.64
2022-10-05T00:23:56.532Z,102080.07
2022-10-05T00:26:26.904Z,102081.41
2022-10-05T00:28:54.456Z,102082.73
2022-10-05T00:31:31.359Z,102083.13
2022-10-05T00:33:58.693Z,102085.97
2022-10-05T00:36:26.004Z,102087.34
2022-10-05T00:38:53.855Z,102092.20
2022-10-05T00:41:36.492Z,102099.66
2022-10-05T00:44:22.565Z,102102.59
2022-10-05T00:46:57.276Z,102100.41
2022-10-05T00:49:33.464Z,102100.43
2022-10-05T00:52:31.664Z,102101.51
2022-10-05T00:55:13.360Z,102097.50
2022-10-05T00:57:41.548Z,102098.63
2022-10-05T01:00:12.678Z,102103.87
2022-10-05T01:02:54.294Z,102103.98
2022-10-05T01:05:43.832Z,102106.39
2022-10-05T01:08:46.278Z,102111.05
2022-10-05T01:11:42.014Z,102112.77
2022-10-05T01:14:21.229Z,102119.50
2022-10-05T01:17:41.547Z,102120.52
2022-10-05T01:21:08.536Z,102123.20
2022-10-05T01:24:15.047Z,102124.40
2022-10-05T01:27:29.917Z,102127.68
2022-10-05T01:30:08.692Z,102124.69
2022-10-05T01:33:22.327Z,102125.09
2022-10-05T01:36:15.162Z,102129.35
2022-10-05T01:38:48.042Z,102126.60
2022-10-05T01:42:10.203Z,102132.00
2022-10-05T01:45:00.187Z,102137.31
2022-10-05T01:47:52.558Z,102138.99
2022-10-05T01:50:22.824Z,102143.36
2022-10-05T01:53:14.678Z,102146.90
2022-10-05T01:55:54.832Z,102151.91
2022-10-05T01:58:44.738Z,102151.67
2022-10-05T02:01:54.972Z,102153.73
2022-10-05T02:05:03.967Z,102154.67
2022-10-05T02:07:52.563Z,102157.52
2022-10-05T02:10:35.328Z,102160.36
2022-10-05T02:13:32.484Z,102163.60
2022-10-05T02:16:33.582Z,102164.58
2022-10-05T02:19:29.256Z,102167.75
2022-10-05T02:22:10.582Z,102171.92
2022-10-05T02:24:46.168Z,102176.52
2022-10-05T02:27:19.181Z,102180.49
2022-10-05T02:29:48.237Z,102180.97
2022-10-05T02:32:23.545Z,102184.37
2022-10-05T02:34:50.943Z,102186.81
2022-10-05T02:37:54.066Z,102190.11
2022-10-05T02:40:40.474Z,102192.71
2022-10-05T02:44:01.651Z,102196.49
2022-10-05T02:46:57.861Z,102199.05
2022-10-05T02:49:29.359Z,102198.06
2022-10-05T02:52:46.698Z,102198.13
2022-10-05T02:55:36.365Z,102197.16
2022-10-05T02:58:19.117Z,102200.07
2022-10-05T03:01:01.141Z,102198.89
2022-10-05T03:03:44.606Z,102201.86
2022-10-05T03:06:56.596Z,102207.73
2022-10-05T03:09:27.851Z,102211.89
2022-10-05T03:12:38.811Z,102214.14
2022-10-05T03:15:33.045Z,102220.14
2022-10-05T03:18:37.368Z,102220.88
2022-10-05T03:21:32.767Z,102222.52
2022-10-05T03:24:21.862Z,102226.12
2022-10-05T03:27:06.590Z,102225.27
2022-10-05T03:29:46.021Z,102228.23
2022-10-05T03:32:41.243Z,102232.98
2022-10-05T03:35:18.211Z,102233.63
2022-10-05T03:38:13.255Z,102232.29
2022-10-05T03:40:55.517Z,102226.38
2022-10-05T03:44:09.575Z,102226.73
2022-10-05T03:47:05.147Z,102230.11
2022-10-05T03:49:47.788Z,102224.61
2022-10-05T03:52:35.714Z,102225.45
2022-10-05T03:55:41.562Z,102227.81
2022-10-05T03:58:27.080Z,102226.17
2022-10-05T04:01:02.090Z,102223.73
2022-10-05T04:03:44.402Z,102223.22
2022-10-05T04:06:30.303Z,102226.38
2022-10-05T04:09:03.831Z,102223.77
2022-10-05T04:12:04.177Z,102226.55
2022-10-05T04:14:41.333Z,102243.39
2022-10-05T04:17:13.980Z,102241.49
2022-10-05T04:19:54.481Z,102244.28
2022-10-05T04:22:32.060Z,102251.56
2022-10-05T04:25:29.412Z,102252.35
2022-10-05T04:28:56.160Z,102262.58
2022-10-05T04:32:04.006Z,102270.66
2022-10-05T04:34:50.564Z,102271.38
2022-10-05T04:37:46.806Z,102266.80
2022-10-05T04:40:42.638Z,102267.38
2022-10-05T04:43:32.936Z,102270.65
2022-10-05T04:46:17.147Z,102274.23
2022-10-05T04:49:12.654Z,102277.04
2022-10-05T04:52:16.959Z,102279.64
2022-10-05T04:55:36.232Z,102286.10
2022-10-05T04:58:42.732Z,102286.48
2022-10-05T05:01:19.693Z,102287.33
2022-10-05T05:04:47.162Z,102286.21
2022-10-05T05:07:19.487Z,102288.21
2022-10-05T05:10:26.548Z,102288.11
2022-10-05T05:13:00.228Z,102278.81
2022-10-05T05:15:51.179Z,102283.88
2022-10-05T05:18:48.900Z,102281.11
2022-10-05T05:21:37.577Z,102284.22
2022-10-05T05:24:33.703Z,102288.02
2022-10-05T05:27:18.626Z,102293.44
2022-10-05T05:30:21.405Z,102297.48
2022-10-05T05:33:09.875Z,102301.91
2022-10-05T05:36:07.427Z,102304.58
2022-10-05T05:39:05.757Z,102299.84
2022-10-05T05:41:59.207Z,102305.63
2022-10-05T05:44:47.972Z,102302.91
2022-10-05T05:47:34.761Z,102306.58
2022-10-05T05:50:31.927Z,102305.84
2022-10-05T05:53:24.795Z,102304.95
2022-10-05T05:56:00.251Z,102305.98
2022-10-05T05:58:39.323Z,102304.02
2022-10-05T06:01:32.924Z,102304.11
2022-10-05T06:04:34.659Z,102314.27
2022-10-05T06:07:02.869Z,102313.07
2022-10-05T06:10:11.432Z,102310.73
2022-10-05T06:12:49.363Z,102318.33
2022-10-05T06:15:32.589Z,102322.90
2022-10-05T06:18:08.357Z,102333.16
2022-10-05T06:20:54.290Z,102328.67
2022-10-05T06:23:48.592Z,102339.42
2022-10-05T06:26:33.012Z,102339.85
2022-10-05T06:29:14.225Z,102349.50
2022-10-05T06:32:06.786Z,102350.11
2022-10-05T06:34:37.845Z,102351.28
2022-10-05T06:37:13.487Z,102354.02
2022-10-05T06:40:31.726Z,102354.56
2022-10-05T06:43:27.720Z,102363.59
2022-10-05T06:47:15.957Z,102372.58
2022-10-05T06:50:03.846Z,102369.11
2022-10-05T06:53:48.008Z,102371.25
2022-10-05T06:57:03.114Z,102373.82
2022-10-05T07:00:07.168Z,102372.02
2022-10-05T07:02:53.883Z,102376.79
2022-10-05T07:06:06.059Z,102378.91
2022-10-05T07:09:27.616Z,102379.37
2022-10-05T07:12:11.498Z,102380.85
2022-10-05T07:15:24.265Z,102386.20
2022-10-05T07:18:32.789Z,102383.15
2022-10-05T07:21:19.824Z,102382.66
2022-10-05T07:24:24.473Z,102383.63
2022-10-05T07:27:19.428Z,102380.29
2022-10-05T07:30:01.374Z,102378.88
2022-10-05T07:32:36.574Z,102379.00
2022-10-05T07:36:09.296Z,102378.83
2022-10-05T07:38:54.409Z,102374.55
2022-10-05T07:41:45.559Z,102378.55
2022-10-05T07:44:58.221Z,102380.64
2022-10-05T07:47:34.239Z,102383.27
2022-10-05T07:50:40.193Z,102382.86
2022-10-05T07:53:33.788Z,102381.03
2022-10-05T07:56:32.895Z,102388.30
2022-10-05T07:59:08.459Z,102385.30
2022-10-05T08:01:39.229Z,102390.39
2022-10-05T08:04:30.655Z,102391.61
2022-10-05T08:07:05.563Z,102395.70
2022-10-05T08:10:03.363Z,102390.75
2022-10-05T08:13:08.664Z,102387.10
2022-10-05T08:15:45.519Z,102385.88
2022-10-05T08:18:59.500Z,102376.41
2022-10-05T08:21:43.003Z,102372.29
2022-10-05T08:24:49.302Z,102375.42
2022-10-05T08:27:26.722Z,102374.73
2022-10-05T08:30:03.586Z,102376.10
2022-10-05T08:32:55.183Z,102377.38
2022-10-05T08:35:37.323Z,102371.92
2022-10-05T08:38:11.925Z,102377.88
2022-10-05T08:41:06.928Z,102376.24
2022-10-05T08:44:30.710Z,102373.38
2022-10-05T08:47:27.459Z,102359.81
2022-10-05T08:50:25.551Z,102365.34
2022-10-05T08:53:20.144Z,102368.44
2022-10-05T08:56:17.627Z,102374.89
2022-10-05T08:59:06.444Z,102368.05
2022-10-05T09:02:17.998Z,102370.08
2022-10-05T09:05:12.738Z,102380.30
2022-10-05T09:08:22.735Z,102374.74
2022-10-05T09:11:17.000Z,102381.64
2022-10-05T09:14:02.348Z,102382.56
2022-10-05T09:16:56.982Z,102396.23
2022-10-05T09:20:30.216Z,102404.00
2022-10-05T09:23:02.753Z,102403.08
2022-10-05T09:25:50.201Z,102402.37
2022-10-05T09:28:25.234Z,102403.65
2022-10-05T09:31:10.742Z,102400.48
2022-10-05T09:33:52.682Z,102400.23
2022-10-05T09:36:44.629Z,102402.40
2022-10-05T09:39:23.809Z,102393.95
2022-10-05T09:42:43.771Z,102383.89
2022-10-05T09:45:48.364Z,102389.70
2022-10-05T09:48:56.283Z,102391.48
2022-10-05T09:51:42.192Z,102376.58
2022-10-05T09:55:16.187Z,102363.70
2022-10-05T09:58:28.983Z,102359.17
2022-10-05T10:01:39.271Z,102352.73
2022-10-05T10:04:30.806Z,102341.70
2022-10-05T10:07:20.650Z,102345.20
2022-10-05T10:10:16.970Z,102352.42
2022-10-05T10:13:28.155Z,102365.00
2022-10-05T10:16:17.371Z,102363.39
2022-10-05T10:19:19.646Z,102366.14
2022-10-05T10:22:15.734Z,102363.05
2022-10-05T10:25:18.656Z,102358.21
2022-10-05T10:28:14.848Z,102359.11
2022-10-05T10:30:58.371Z,102359.07
2022-10-05T10:34:04.737Z,102352.16
2022-10-05T10:37:18.814Z,102358.35
2022-10-05T10:40:30.024Z,102356.46
2022-10-05T10:43:40.620Z,102350.36
2022-10-05T10:46:55.668Z,102347.72
2022-10-05T10:49:35.111Z,102351.59
2022-10-05T10:52:16.338Z,102350.70
2022-10-05T10:55:11.218Z,102354.22
2022-10-05T11:01:31.172Z,102348.33
2022-10-05T11:04:41.582Z,102339.55
2022-10-05T11:07:26.521Z,102332.89
2022-10-05T11:10:34.773Z,102328.25
2022-10-05T11:13:31.407Z,102328.94
2022-10-05T11:16:35.572Z,102320.13
2022-10-05T11:19:35.041Z,102318.91
2022-10-05T11:22:39.598Z,102311.36
2022-10-05T11:25:31.770Z,102298.62
2022-10-05T11:28:08.016Z,102296.28
2022-10-05T11:31:09.401Z,102293.56
2022-10-05T11:34:01.364Z,102288.73
2022-10-05T11:37:42.255Z,102286.64
2022-10-05T11:40:50.483Z,102284.35
2022-10-05T11:44:08.077Z,102279.02
2022-10-05T11:47:09.187Z,102280.53
2022-10-05T11:49:53.803Z,102281.77
2022-10-05T11:52:41.219Z,102288.14
2022-10-05T11:55:44.645Z,102288.04
2022-10-05T11:58:33.716Z,102284.27
2022-10-05T12:02:08.579Z,102286.27
2022-10-05T12:05:20.941Z,102283.83
2022-10-05T12:08:00.237Z,102288.48
2022-10-05T12:10:36.729Z,102295.96
2022-10-05T12:13:10.907Z,102292.60
2022-10-05T12:16:06.095Z,102291.19
2022-10-05T12:18:33.718Z,102287.19
2022-10-05T12:21:10.234Z,102284.93
2022-10-05T12:23:42.828Z,102290.52
2022-10-05T12:26:26.083Z,102286.96
2022-10-05T12:29:00.920Z,102283.34
2022-10-05T12:31:55.320Z,102281.46
2022-10-05T12:34:42.392Z,102285.48
2022-10-05T12:37:47.950Z,102279.77
2022-10-05T12:40:51.236Z,102280.42
2022-10-05T12:43:32.259Z,102275.36
2022-10-05T12:46:20.253Z,102273.27
2022-10-05T12:48:57.211Z,102272.29
2022-10-05T12:51:56.018Z,102263.20
2022-10-05T12:54:47.366Z,102258.19
2022-10-05T12:57:23.090Z,102255.95
2022-10-05T13:00:21.739Z,102262.80
2022-10-05T13:02:57.132Z,102267.82
2022-10-05T13:05:38.874Z,102271.54
2022-10-05T13:08:29.988Z,102274.11
2022-10-05T13:11:20.193Z,102276.24
2022-10-05T13:14:11.840Z,102274.02
2022-10-05T13:16:55.223Z,102276.11
2022-10-05T13:19:55.483Z,102278.25
2022-10-05T13:22:32.198Z,102275.13
2022-10-05T13:25:16.876Z,102273.02
2022-10-05T13:27:55.130Z,102269.27
2022-10-05T13:30:22.429Z,102269.10
2022-10-05T13:33:24.964Z,102269.20
2022-10-05T13:36:21.112Z,102267.55
2022-10-05T13:39:11.389Z,102266.00
2022-10-05T13:42:01.891Z,102268.13
2022-10-05T13:44:37.677Z,102268.99
2022-10-05T13:47:20.455Z,102262.66
2022-10-05T13:50:10.448Z,102262.45
2022-10-05T13:53:18.067Z,102269.63
2022-10-05T13:55:58.703Z,102267.63
2022-10-05T13:58:34.485Z,102265.79
2022-10-05T14:01:08.499Z,102265.77
2022-10-05T14:03:37.669Z,102263.23
2022-10-05T14:06:30.204Z,102264.17
2022-10-05T14:08:57.672Z,102257.98
2022-10-05T14:11:33.130Z,102258.09
2022-10-05T14:14:14.646Z,102258.48
2022-10-05T14:16:59.703Z,102259.05
2022-10-05T14:19:34.310Z,102262.35
2022-10-05T14:22:23.684Z,102263.78
2022-10-05T14:24:54.674Z,102260.52
2022-10-05T14:27:25.033Z,102259.33
2022-10-05T14:30:19.784Z,102257.92
2022-10-05T14:33:05.131Z,102258.73
2022-10-05T14:35:54.824Z,102254.88
2022-10-05T14:38:46.950Z,102254.49
2022-10-05T14:41:27.054Z,102257.73
2022-10-05T14:44:12.834Z,102260.33
2022-10-05T14:47:39.834Z,102263.44
2022-10-05T14:50:21.080Z,102263.73
2022-10-05T14:53:20.936Z,102261.79
2022-10-05T14:56:01.485Z,102263.16
2022-10-05T14:58:58.384Z,102270.84
2022-10-05T15:01:35.251Z,102269.34
2022-10-05T15:04:45.457Z,102264.21
2022-10-05T15:07:56.928Z,102265.94
2022-10-05T15:10:31.890Z,102266.84
2022-10-05T15:13:15.150Z,102265.48
2022-10-05T15:15:51.623Z,102267.91
2022-10-05T15:19:02.688Z,102273.23
2022-10-05T15:22:13.860Z,102276.55
2022-10-05T15:25:14.026Z,102277.73
2022-10-05T15:28:06.190Z,102286.20
2022-10-05T15:30:39.500Z,102287.61
2022-10-05T15:33:33.762Z,102289.64
2022-10-05T15:36:35.153Z,102296.21
2022-10-05T15:39:05.664Z,102306.38
2022-10-05T15:41:58.199Z,102309.16
2022-10-05T15:45:31.750Z,102307.40
2022-10-05T15:48:23.505Z,102306.75
2022-10-05T15:51:00.306Z,102303.09
2022-10-05T15:53:51.716Z,102301.59
2022-10-05T15:56:36.482Z,102301.46
2022-10-05T15:59:45.468Z,102302.23
2022-10-05T16:02:23.773Z,102302.09
2022-10-05T16:05:44.461Z,102306.32
2022-10-05T16:08:53.020Z,102306.02
2022-10-05T16:12:01.133Z,102300.83
2022-10-05T16:15:04.480Z,102301.00
2022-10-05T16:17:48.118Z,102305.69
2022-10-05T16:20:15.592Z,102303.08
2022-10-05T16:23:20.050Z,102300.97
2022-10-05T16:26:22.631Z,102307.30
2022-10-05T16:28:53.993Z,102310.46
2022-10-05T16:31:39.872Z,102311.58
2022-10-05T16:34:18.492Z,102315.66
2022-10-05T16:37:49.503Z,102316.73
2022-10-05T16:40:37.825Z,102321.49
2022-10-05T16:43:21.574Z,102320.64
2022-10-05T16:46:45.952Z,102320.86
2022-10-05T16:49:53.321Z,102316.39
2022-10-05T16:52:21.265Z,102309.59
2022-10-05T16:55:03.379Z,102311.02
2022-10-05T16:57:39.111Z,102309.15
2022-10-05T17:00:27.985Z,102307.50
2022-10-05T17:03:27.307Z,102309.60
2022-10-05T17:06:26.775Z,102311.23
2022-10-05T17:09:33.057Z,102315.73
2022-10-05T17:12:45.034Z,102313.82
2022-10-05T17:15:37.729Z,102312.02
2022-10-05T17:18:16.249Z,102316.52
2022-10-05T17:21:11.167Z,102319.48
2022-10-05T17:24:01.036Z,102322.88
2022-10-05T17:26:54.933Z,102323.75
2022-10-05T17:29:24.472Z,102326.91
2022-10-05T17:32:16.632Z,102328.44
2022-10-05T17:35:02.326Z,102336.23
2022-10-05T17:37:40.873Z,102332.71
2022-10-05T17:40:37.285Z,102335.35
2022-10-05T17:43:30.236Z,102340.02
2022-10-05T17:46:01.576Z,102346.34
2022-10-05T17:48:42.207Z,102349.70
2022-10-05T17:51:55.596Z,102352.92
2022-10-05T17:54:49.681Z,102352.25
2022-10-05T17:57:27.364Z,102354.85
2022-10-05T17:59:57.241Z,102357.63
2022-10-05T18:02:42.554Z,102357.52
2022-10-05T18:05:11.991Z,102351.08
2022-10-05T18:07:50.498Z,102351.14
2022-10-05T18:10:28.242Z,102352.26
2022-10-05T18:12:58.554Z,102349.86
2022-10-05T18:15:26.105Z,102344.64
2022-10-05T18:18:32.743Z,102348.80
2022-10-05T18:21:25.113Z,102346.57
2022-10-05T18:23:52.438Z,102345.27
2022-10-05T18:26:53.602Z,102341.87
2022-10-05T18:30:18.625Z,102345.63
2022-10-05T18:33:52.192Z,102345.36
2022-10-05T18:36:26.774Z,102341.36
2022-10-05T18:39:07.883Z,102338.44
2022-10-05T18:41:57.666Z,102336.86
2022-10-05T18:44:55.480Z,102337.27
2022-10-05T18:47:44.620Z,102335.88
2022-10-05T18:50:33.094Z,102340.55
2022-10-05T18:53:16.442Z,102343.38
2022-10-05T18:55:58.604Z,102341.58
2022-10-05T18:58:29.840Z,102339.73
2022-10-05T19:01:40.673Z,102340.16
2022-10-05T19:04:38.671Z,102341.56
2022-10-05T19:07:37.961Z,102343.92
2022-10-05T19:10:44.677Z,102348.55
2022-10-05T19:13:27.765Z,102348.99
2022-10-05T19:16:36.393Z,102350.76
2022-10-05T19:19:38.358Z,102347.52
2022-10-05T19:22:33.771Z,102347.27
2022-10-05T19:25:54.402Z,102353.78
2022-10-05T19:29:01.867Z,102362.11
2022-10-05T19:31:38.941Z,102366.85
2022-10-05T19:34:25.104Z,102364.46
2022-10-05T19:37:21.570Z,102362.91
2022-10-05T19:40:15.499Z,102362.19
2022-10-05T19:42:57.675Z,102362.55
2022-10-05T19:45:28.132Z,102365.14
2022-10-05T19:48:21.468Z,102369.20
2022-10-05T19:50:58.042Z,102374.27
2022-10-05T19:53:39.417Z,102373.04
2022-10-05T19:56:23.019Z,102372.77
2022-10-05T19:58:56.067Z,102372.05
2022-10-05T20:01:37.986Z,102374.45
2022-10-05T20:04:06.418Z,102374.68
2022-10-05T20:06:34.302Z,102371.86
2022-10-05T20:09:19.432Z,102375.37
2022-10-05T20:11:51.718Z,102368.87
2022-10-05T20:14:33.300Z,102370.55
2022-10-05T20:17:45.626Z,102369.20
2022-10-05T20:20:47.022Z,102369.66
2022-10-05T20:23:27.585Z,102373.35
2022-10-05T20:26:44.929Z,102371.27
2022-10-05T20:29:12.437Z,102374.80
2022-10-05T20:31:39.826Z,102371.02
2022-10-05T20:34:07.630Z,102370.23
2022-10-05T20:36:35.070Z,102372.04
2022-10-05T20:39:02.557Z,102372.70
2022-10-05T20:41:30.086Z,102374.76
2022-10-05T20:43:57.453Z,102374.41
2022-10-05T20:46:25.035Z,102375.13
2022-10-05T20:48:53.436Z,102373.15
2022-10-05T20:51:20.866Z,102373.88
2022-10-05T20:53:59.402Z,102376.60
2022-10-05T20:56:26.801Z,102370.38
2022-10-05T20:59:18.976Z,102362.20
2022-10-05T21:01:49.446Z,102352.64
2022-10-05T21:04:22.107Z,102355.05
2022-10-05T21:06:49.908Z,102360.64
2022-10-05T21:09:19.085Z,102357.43
2022-10-05T21:11:49.481Z,102354.81
2022-10-05T21:14:17.124Z,102351.58
2022-10-05T21:16:45.757Z,102350.85
2022-10-05T21:19:14.797Z,102348.36
2022-10-05T21:21:45.092Z,102347.73
2022-10-05T21:24:14.400Z,102353.09
2022-10-05T21:26:43.777Z,102351.86
2022-10-05T21:29:13.164Z,102352.09
2022-10-05T21:31:40.755Z,102352.42
2022-10-05T21:34:08.571Z,102353.45
2022-10-05T21:36:39.247Z,102353.38
2022-10-05T21:39:06.637Z,102350.03
2022-10-05T21:41:34.238Z,102348.27
2022-10-05T21:44:01.559Z,102342.05
2022-10-05T21:46:29.619Z,102331.60
2022-10-05T21:48:56.910Z,102323.00
2022-10-05T21:51:25.904Z,102322.86
2022-10-05T21:54:02.398Z,102322.27
2022-10-05T21:56:38.953Z,102320.45
2022-10-05T21:59:09.092Z,102318.77
2022-10-05T22:01:37.017Z,102315.83
2022-10-05T22:04:05.833Z,102315.17
2022-10-05T22:06:34.823Z,102314.45
2022-10-05T22:09:04.254Z,102310.41
2022-10-05T22:11:32.468Z,102310.46
2022-10-05T22:14:02.901Z,102311.93
2022-10-05T22:16:36.114Z,102312.80
2022-10-05T22:19:05.719Z,102314.79
2022-10-05T22:21:37.686Z,102317.91
2022-10-05T22:24:05.439Z,102327.25
2022-10-05T22:26:34.416Z,102327.04
2022-10-05T22:29:02.516Z,102331.61
2022-10-05T22:31:29.812Z,102331.05
2022-10-05T22:33:57.153Z,102331.49
2022-10-05T22:36:24.564Z,102338.73
2022-10-05T22:38:51.921Z,102336.68
2022-10-05T22:41:19.394Z,102337.02
2022-10-05T22:43:49.631Z,102337.90
2022-10-05T22:46:17.966Z,102345.62
2022-10-05T22:48:45.645Z,102345.00
2022-10-05T22:51:13.025Z,102344.16
2022-10-05T22:53:40.345Z,102346.34
2022-10-05T22:56:10.832Z,102349.79
2022-10-05T22:58:38.811Z,102349.16
2022-10-05T23:01:10.228Z,102348.48
2022-10-05T23:03:38.010Z,102339.89
2022-10-05T23:06:16.078Z,102338.16
2022-10-05T23:08:43.925Z,102332.08
2022-10-05T23:11:22.070Z,102324.83
2022-10-05T23:13:58.119Z,102323.57
2022-10-05T23:16:28.234Z,102326.48
2022-10-05T23:18:56.130Z,102328.19
2022-10-05T23:21:25.342Z,102329.30
2022-10-05T23:23:52.812Z,102326.91
2022-10-05T23:26:23.296Z,102321.91
2022-10-05T23:28:51.104Z,102322.63
2022-10-05T23:31:21.493Z,102318.14
2022-10-05T23:33:49.258Z,102315.61
2022-10-05T23:36:19.882Z,102314.61
2022-10-05T23:38:47.708Z,102313.17
2022-10-05T23:41:15.728Z,102312.75
2022-10-05T23:43:43.548Z,102305.73
2022-10-05T23:46:11.978Z,102298.42
2022-10-05T23:48:39.523Z,102299.41
2022-10-05T23:51:09.876Z,102300.48
2022-10-05T23:53:37.823Z,102298.42
2022-10-05T23:56:05.875Z,102300.11
2022-10-05T23:58:34.173Z,102307.88
